Time;durP1;ratioP1;P1;durP2;ratioP2;P2;SDS_P1;SDS_P2;PMS_P1;PMS_P2;Temp;Humidity;BMP_temperature;BMP_pressure;BME280_temperature;BME280_humidity;BME280_pressure;Samples;Min_cycle;Max_cycle;Signal;HPM_P1;HPM_P2
2023/09/01 00:00:58;;;;;;;5.63;2.33;;;;;;;13.86;100.00;95681.09;4985657;28;24438;-77
2023/09/01 00:03:25;;;;;;;3.37;2.10;;;;;;;13.89;100.00;95682.66;4974580;28;24487;-76
2023/09/01 00:05:51;;;;;;;3.13;1.85;;;;;;;13.88;100.00;95683.59;4987346;28;24433;-76
2023/09/01 00:08:18;;;;;;;2.85;1.70;;;;;;;13.89;100.00;95677.44;4992382;28;24437;-77
2023/09/01 00:10:45;;;;;;;3.60;1.90;;;;;;;13.82;100.00;95690.09;4993387;28;24437;-75
2023/09/01 00:13:12;;;;;;;5.07;2.05;;;;;;;13.79;100.00;95691.19;4985382;28;24449;-75
2023/09/01 00:15:40;;;;;;;2.50;1.85;;;;;;;13.77;100.00;95684.44;4974241;28;24441;-76
2023/09/01 00:18:07;;;;;;;5.72;1.80;;;;;;;13.80;100.00;95679.81;4974017;28;24440;-76
2023/09/01 00:20:34;;;;;;;4.68;2.13;;;;;;;13.86;100.00;95680.28;4979505;28;24769;-75
2023/09/01 00:23:01;;;;;;;5.78;2.10;;;;;;;13.91;100.00;95676.38;4980295;28;24439;-76
2023/09/01 00:25:28;;;;;;;5.82;1.90;;;;;;;14.01;100.00;95679.09;4993615;28;24782;-76
2023/09/01 00:27:54;;;;;;;3.50;1.63;;;;;;;14.02;100.00;95685.97;4993695;28;24424;-76
2023/09/01 00:30:21;;;;;;;5.35;1.70;;;;;;;14.08;100.00;95672.47;4977640;28;24449;-76
2023/09/01 00:32:49;;;;;;;3.80;1.90;;;;;;;14.05;100.00;95667.47;4974370;28;24417;-76
2023/09/01 00:35:16;;;;;;;3.17;2.00;;;;;;;14.17;100.00;95676.97;4973481;28;24441;-76
2023/09/01 00:37:42;;;;;;;3.53;1.90;;;;;;;14.15;100.00;95663.22;4974596;28;24461;-76
2023/09/01 00:40:09;;;;;;;3.75;2.10;;;;;;;14.23;100.00;95665.22;4984519;28;24444;-76
2023/09/01 00:42:36;;;;;;;3.08;1.88;;;;;;;14.16;100.00;95672.69;4992774;28;24413;-76
2023/09/01 00:45:03;;;;;;;4.93;2.20;;;;;;;14.18;100.00;95672.56;4993353;28;24424;-76
2023/09/01 00:47:29;;;;;;;3.90;2.13;;;;;;;14.17;100.00;95670.94;4992856;28;24960;-76
2023/09/01 00:49:57;;;;;;;3.67;1.95;;;;;;;14.02;100.00;95679.00;4993247;28;24956;-76
2023/09/01 00:52:24;;;;;;;4.28;1.98;;;;;;;14.04;100.00;95678.84;4993269;28;24417;-76
2023/09/01 00:54:51;;;;;;;4.45;2.05;;;;;;;14.05;100.00;95680.50;4989066;28;25019;-76
2023/09/01 00:57:17;;;;;;;3.47;1.77;;;;;;;14.03;100.00;95674.59;4973256;28;24448;-76
2023/09/01 00:59:44;;;;;;;14.30;1.95;;;;;;;14.05;100.00;95683.09;4973466;28;24961;-76
2023/09/01 01:02:10;;;;;;;4.43;1.63;;;;;;;14.08;100.00;95677.66;4986591;28;24463;-76
2023/09/01 01:04:37;;;;;;;4.15;1.85;;;;;;;14.20;100.00;95673.25;4992975;28;24774;-76
2023/09/01 01:07:13;;;;;;;2.42;1.65;;;;;;;14.12;100.00;95668.66;4993121;28;24413;-76
2023/09/01 01:09:48;;;;;;;3.77;1.73;;;;;;;14.13;100.00;95672.94;4983328;28;24440;-76
2023/09/01 01:12:22;;;;;;;3.53;2.08;;;;;;;14.12;100.00;95668.66;4973813;28;24502;-76
2023/09/01 01:14:53;;;;;;;4.97;1.88;;;;;;;14.08;100.00;95671.63;4973712;28;24446;-76
2023/09/01 01:17:21;;;;;;;6.78;2.20;;;;;;;14.07;100.00;95665.59;4979977;28;24499;-76
2023/09/01 01:19:51;;;;;;;2.85;1.67;;;;;;;14.07;100.00;95675.19;4992642;28;24432;-76
2023/09/01 01:22:29;;;;;;;5.47;2.00;;;;;;;14.03;100.00;95664.19;4982500;28;24805;-77
2023/09/01 01:24:56;;;;;;;6.25;1.80;;;;;;;14.04;100.00;95668.44;4987919;28;24444;-76
2023/09/01 01:27:23;;;;;;;3.33;1.70;;;;;;;14.12;100.00;95668.66;4972641;28;24786;-76
2023/09/01 01:29:49;;;;;;;3.78;2.08;;;;;;;14.10;100.00;95661.94;4998813;28;24440;-76
2023/09/01 01:32:16;;;;;;;2.63;1.50;;;;;;;14.07;100.00;95659.56;4998504;28;24444;-76
2023/09/01 01:34:49;;;;;;;2.70;1.45;;;;;;;14.14;100.00;95651.16;4973327;28;24441;-77
2023/09/01 01:37:22;;;;;;;3.78;1.67;;;;;;;14.09;100.00;95655.06;4981346;28;24456;-76
2023/09/01 01:39:51;;;;;;;3.13;1.55;;;;;;;14.18;100.00;95649.97;4983001;28;24438;-76
2023/09/01 01:42:19;;;;;;;6.65;1.73;;;;;;;14.17;100.00;95650.09;4974286;28;24941;-76
2023/09/01 01:44:49;;;;;;;3.85;1.67;;;;;;;14.16;100.00;95654.44;4991730;28;24428;-76
2023/09/01 01:47:16;;;;;;;2.65;1.38;;;;;;;14.12;100.00;95649.59;4972804;28;24438;-76
2023/09/01 01:49:43;;;;;;;2.90;1.58;;;;;;;14.13;100.00;95649.50;4973696;28;24464;-76
2023/09/01 01:52:09;;;;;;;2.67;1.60;;;;;;;14.18;100.00;95649.13;4981689;28;25009;-76
2023/09/01 01:54:36;;;;;;;2.53;1.53;;;;;;;14.09;100.00;95648.09;4991578;28;24473;-75
2023/09/01 01:57:02;;;;;;;4.55;1.73;;;;;;;14.11;100.00;95659.19;4992041;28;24445;-75
2023/09/01 01:59:30;;;;;;;2.97;1.70;;;;;;;14.13;100.00;95649.50;4991862;28;24424;-76
2023/09/01 02:01:58;;;;;;;3.33;1.77;;;;;;;14.21;100.00;95656.72;4992011;28;24425;-76
2023/09/01 02:04:24;;;;;;;3.67;1.83;;;;;;;14.16;100.00;95657.06;4991891;28;24441;-75
2023/09/01 02:06:50;;;;;;;3.93;1.70;;;;;;;14.20;100.00;95660.25;4992013;28;24975;-76
2023/09/01 02:09:17;;;;;;;3.20;1.60;;;;;;;14.25;100.00;95658.13;4986666;28;24445;-75
2023/09/01 02:11:43;;;;;;;5.57;1.75;;;;;;;14.22;100.00;95658.34;4982390;28;24448;-76
2023/09/01 02:14:10;;;;;;;2.95;1.80;;;;;;;14.20;100.00;95663.69;4987375;28;24453;-76
2023/09/01 02:16:39;;;;;;;2.80;1.50;;;;;;;14.18;100.00;95662.97;4988497;28;24456;-77
2023/09/01 02:19:08;;;;;;;4.00;1.67;;;;;;;14.25;100.00;95665.94;4976674;28;24445;-75
2023/09/01 02:21:34;;;;;;;3.03;1.73;;;;;;;14.21;100.00;95664.53;4991796;28;24429;-75
2023/09/01 02:24:01;;;;;;;2.33;1.50;;;;;;;14.23;100.00;95667.81;4979428;28;24468;-75
2023/09/01 02:26:27;;;;;;;2.97;1.48;;;;;;;14.19;100.00;95663.81;4972353;28;24421;-75
2023/09/01 02:28:54;;;;;;;3.03;1.45;;;;;;;14.18;100.00;95676.00;4975556;28;24465;-76
2023/09/01 02:31:21;;;;;;;3.92;1.85;;;;;;;14.17;100.00;95666.53;4993051;28;25011;-76
2023/09/01 02:33:49;;;;;;;4.03;1.77;;;;;;;14.24;100.00;95653.88;5010875;28;24435;-75
2023/09/01 02:36:23;;;;;;;4.22;1.38;;;;;;;14.27;100.00;95654.41;4984065;28;24444;-75
2023/09/01 02:38:50;;;;;;;2.53;1.55;;;;;;;14.24;100.00;95661.69;4973656;28;24497;-75
2023/09/01 02:41:16;;;;;;;3.00;1.52;;;;;;;14.27;100.00;95666.63;4991369;28;24801;-76
2023/09/01 02:43:44;;;;;;;2.88;1.50;;;;;;;14.17;100.00;95661.34;4991036;28;24417;-76
2023/09/01 02:46:11;;;;;;;2.60;1.47;;;;;;;14.12;100.00;95660.03;4974404;28;24461;-75
2023/09/01 02:48:37;;;;;;;1.83;1.37;;;;;;;14.15;100.00;95658.00;4982235;28;24453;-75
2023/09/01 02:51:06;;;;;;;2.03;1.27;;;;;;;14.18;100.00;95657.78;5009313;28;24474;-75
2023/09/01 02:53:32;;;;;;;3.42;1.33;;;;;;;14.16;100.00;95661.44;5010851;28;24420;-75
2023/09/01 02:55:59;;;;;;;3.17;1.60;;;;;;;14.16;100.00;95662.25;5010871;28;24419;-76
2023/09/01 02:58:26;;;;;;;2.97;1.42;;;;;;;14.14;100.00;95676.38;5010532;28;24452;-75
2023/09/01 03:00:52;;;;;;;2.05;1.30;;;;;;;14.15;100.00;95668.44;5011054;28;24749;-76
2023/09/01 03:03:19;;;;;;;3.40;1.60;;;;;;;14.10;100.00;95669.75;5010583;28;24955;-75
2023/09/01 03:05:46;;;;;;;2.45;1.35;;;;;;;14.13;100.00;95667.72;4997847;28;24495;-76
2023/09/01 03:08:14;;;;;;;3.00;1.45;;;;;;;14.10;100.00;95670.56;4991155;28;24452;-75
2023/09/01 03:10:41;;;;;;;3.75;1.60;;;;;;;14.14;100.00;95669.38;4971763;28;24421;-75
2023/09/01 03:13:07;;;;;;;5.85;1.30;;;;;;;14.14;100.00;95679.78;4971675;28;24436;-75
2023/09/01 03:15:34;;;;;;;3.47;1.60;;;;;;;14.15;100.00;95673.63;4971761;28;24425;-75
2023/09/01 03:18:00;;;;;;;4.38;1.70;;;;;;;14.18;100.00;95680.38;4988734;28;24453;-75
2023/09/01 03:20:27;;;;;;;4.38;1.58;;;;;;;14.12;100.00;95683.47;4990655;28;24421;-75
2023/09/01 03:22:54;;;;;;;2.10;1.30;;;;;;;14.19;100.00;95685.47;4990713;28;24441;-76
2023/09/01 03:25:22;;;;;;;3.90;1.27;;;;;;;14.22;100.00;95692.22;4993109;28;24419;-75
2023/09/01 03:27:48;;;;;;;2.00;1.30;;;;;;;14.19;100.00;95682.84;4994730;28;24417;-75
2023/09/01 03:30:15;;;;;;;1.90;1.10;;;;;;;14.23;100.00;95689.47;4992182;28;24968;-75
2023/09/01 03:32:42;;;;;;;2.33;1.17;;;;;;;14.23;100.00;95683.44;4994085;28;24441;-75
2023/09/01 03:35:09;;;;;;;6.20;1.25;;;;;;;14.26;100.00;95680.59;5039673;23;25218;-77
2023/09/01 03:37:36;;;;;;;2.78;1.20;;;;;;;14.26;100.00;95680.59;5008600;28;24449;-78
2023/09/01 03:40:07;;;;;;;3.50;1.10;;;;;;;14.27;100.00;95675.25;4994912;28;24978;-78
2023/09/01 03:42:35;;;;;;;9.00;1.37;;;;;;;14.32;100.00;95679.31;5013963;28;24507;-78
2023/09/01 03:45:02;;;;;;;1.83;1.13;;;;;;;14.36;100.00;95675.50;5008865;28;24452;-78
2023/09/01 03:47:29;;;;;;;2.13;1.10;;;;;;;14.38;100.00;95681.41;4999537;28;24420;-77
2023/09/01 03:49:55;;;;;;;3.22;1.23;;;;;;;14.37;100.00;95679.75;5014335;28;24783;-76
2023/09/01 03:52:22;;;;;;;2.85;1.35;;;;;;;14.37;100.00;95677.16;5014064;28;24408;-76
2023/09/01 03:54:48;;;;;;;2.60;1.17;;;;;;;14.47;100.00;95684.13;5010313;28;24452;-76
2023/09/01 03:57:15;;;;;;;2.28;1.25;;;;;;;14.46;100.00;95684.22;4993120;28;24805;-76
2023/09/01 03:59:44;;;;;;;3.22;1.10;;;;;;;14.48;100.00;95682.34;4998666;28;24502;-77
2023/09/01 04:02:10;;;;;;;2.93;1.17;;;;;;;14.43;100.00;95685.31;4994035;28;24476;-78
2023/09/01 04:04:37;;;;;;;2.70;1.30;;;;;;;14.41;100.00;95682.00;5001688;28;25096;-78
2023/09/01 04:07:06;;;;;;;2.50;1.27;;;;;;;14.40;100.00;95685.56;5002235;28;24995;-77
2023/09/01 04:09:32;;;;;;;2.00;1.05;;;;;;;14.40;100.00;95688.16;4993398;28;24781;-78
2023/09/01 04:11:59;;;;;;;2.58;1.10;;;;;;;14.41;100.00;95691.59;4993923;28;24455;-78
2023/09/01 04:14:25;;;;;;;2.30;1.10;;;;;;;14.33;100.00;95694.81;4994525;28;24455;-78
2023/09/01 04:16:53;;;;;;;2.00;1.08;;;;;;;14.34;100.00;95693.03;5001447;28;24444;-78
2023/09/01 04:19:19;;;;;;;2.25;1.05;;;;;;;14.35;100.00;95695.53;4991998;28;24444;-78
2023/09/01 04:21:46;;;;;;;2.45;1.10;;;;;;;14.33;100.00;95688.78;4993423;28;24434;-78
2023/09/01 04:24:12;;;;;;;2.72;1.20;;;;;;;14.40;100.00;95682.94;4993918;28;24441;-78
2023/09/01 04:26:39;;;;;;;2.30;1.17;;;;;;;14.37;100.00;95685.78;5002201;28;24433;-78
2023/09/01 04:29:06;;;;;;;5.30;1.10;;;;;;;14.48;100.00;95685.78;5003848;28;24436;-78
2023/09/01 04:31:32;;;;;;;1.65;0.90;;;;;;;14.52;100.00;95686.38;5000517;28;24464;-78
2023/09/01 04:34:00;;;;;;;1.70;1.00;;;;;;;14.46;100.00;95686.84;4994397;28;24448;-78
2023/09/01 04:36:27;;;;;;;2.45;1.20;;;;;;;14.43;100.00;95700.13;4992449;28;24980;-77
2023/09/01 04:38:54;;;;;;;2.55;1.05;;;;;;;14.39;100.00;95696.13;4993663;28;24464;-78
2023/09/01 04:41:20;;;;;;;1.50;1.03;;;;;;;14.36;100.00;95696.34;4994560;28;24441;-78
2023/09/01 04:43:47;;;;;;;1.60;1.10;;;;;;;14.30;100.00;95695.03;4994376;28;24448;-78
2023/09/01 04:46:13;;;;;;;1.95;1.30;;;;;;;14.31;100.00;95690.66;4993263;28;24441;-79
2023/09/01 04:48:41;;;;;;;2.70;1.20;;;;;;;14.37;100.00;95691.00;4994575;28;24507;-79
2023/09/01 04:51:09;;;;;;;1.83;1.17;;;;;;;14.35;100.00;95698.13;4993292;28;24460;-79
2023/09/01 04:53:35;;;;;;;2.50;1.05;;;;;;;14.29;100.00;95706.41;4993578;28;24630;-79
2023/09/01 04:56:01;;;;;;;1.80;1.30;;;;;;;14.26;100.00;95702.28;4992827;28;24663;-79
2023/09/01 04:58:27;;;;;;;2.70;1.30;;;;;;;14.33;100.00;95702.63;4992258;28;24457;-79
2023/09/01 05:00:54;;;;;;;2.17;1.23;;;;;;;14.31;100.00;95706.28;4993637;28;24436;-79
2023/09/01 05:03:21;;;;;;;2.53;1.30;;;;;;;14.28;100.00;95707.38;4993611;28;24433;-79
2023/09/01 05:05:49;;;;;;;2.03;1.30;;;;;;;14.26;100.00;95712.69;4993209;28;24528;-78
2023/09/01 05:08:17;;;;;;;1.80;1.50;;;;;;;14.28;100.00;95718.63;4991538;28;24444;-78
2023/09/01 05:10:44;;;;;;;1.43;1.17;;;;;;;14.31;100.00;95724.53;4992858;28;24483;-78
2023/09/01 05:13:10;;;;;;;1.83;1.02;;;;;;;14.35;100.00;95724.19;4993110;28;24432;-78
2023/09/01 05:15:37;;;;;;;1.90;1.00;;;;;;;14.31;100.00;95716.72;4992792;28;24437;-78
2023/09/01 05:18:04;;;;;;;2.55;1.33;;;;;;;14.32;100.00;95711.41;4992921;28;24445;-78
2023/09/01 05:20:30;;;;;;;2.08;1.33;;;;;;;14.34;100.00;95708.66;4992590;28;24437;-78
2023/09/01 05:22:57;;;;;;;1.92;1.13;;;;;;;14.37;100.00;95709.25;4993193;28;24444;-78
2023/09/01 05:25:25;;;;;;;1.73;1.15;;;;;;;14.39;100.00;95712.56;4992235;28;24455;-78
2023/09/01 05:27:51;;;;;;;3.72;1.35;;;;;;;14.41;100.00;95722.84;4993058;28;24452;-78
2023/09/01 05:30:18;;;;;;;1.73;1.13;;;;;;;14.39;100.00;95717.78;4993445;28;24444;-78
2023/09/01 05:32:44;;;;;;;2.33;1.10;;;;;;;14.40;100.00;95723.81;4993513;28;24781;-77
2023/09/01 05:35:11;;;;;;;1.55;1.10;;;;;;;14.45;100.00;95726.88;4993161;28;24444;-79
2023/09/01 05:37:37;;;;;;;1.90;1.30;;;;;;;14.47;100.00;95731.03;4992230;28;24452;-78
2023/09/01 05:40:05;;;;;;;1.80;1.02;;;;;;;14.45;100.00;95729.47;4993020;28;24440;-78
2023/09/01 05:42:33;;;;;;;3.15;1.23;;;;;;;14.40;100.00;95729.03;4992996;28;24536;-78
2023/09/01 05:45:00;;;;;;;1.77;0.98;;;;;;;14.37;100.00;95740.50;4992000;28;24479;-78
2023/09/01 05:47:26;;;;;;;2.45;1.20;;;;;;;14.37;100.00;95739.69;4991605;28;24433;-78
2023/09/01 05:49:52;;;;;;;2.50;1.20;;;;;;;14.36;100.00;95732.81;4992213;28;24979;-69
2023/09/01 05:52:19;;;;;;;3.47;1.20;;;;;;;14.32;100.00;95747.03;4992685;28;24452;-79
2023/09/01 05:54:45;;;;;;;1.98;1.20;;;;;;;14.27;100.00;95745.59;4991749;28;24437;-74
2023/09/01 05:57:12;;;;;;;2.13;1.00;;;;;;;14.23;100.00;95746.78;4991767;28;24440;-78
2023/09/01 05:59:40;;;;;;;1.77;1.08;;;;;;;14.27;100.00;95749.97;4988326;28;24808;-77
2023/09/01 06:02:06;;;;;;;1.42;0.95;;;;;;;14.27;100.00;95761.22;4990514;28;24437;-76
2023/09/01 06:04:33;;;;;;;3.60;1.27;;;;;;;14.25;100.00;95747.50;4993170;28;24448;-79
2023/09/01 06:06:59;;;;;;;3.47;1.40;;;;;;;14.27;100.00;95753.41;4993010;28;25046;-77
2023/09/01 06:09:26;;;;;;;2.15;1.42;;;;;;;14.32;100.00;95752.25;4992935;28;24435;-79
2023/09/01 06:11:52;;;;;;;3.55;1.20;;;;;;;14.36;100.00;95754.50;4993640;28;24444;-77
2023/09/01 06:14:19;;;;;;;3.33;1.15;;;;;;;14.43;100.00;95753.06;4993691;28;24792;-77
2023/09/01 06:16:49;;;;;;;3.20;1.23;;;;;;;14.50;100.00;95756.06;4993050;28;24452;-77
2023/09/01 06:19:15;;;;;;;2.55;1.20;;;;;;;14.57;100.00;95745.97;4993115;28;24448;-79
2023/09/01 06:21:42;;;;;;;1.95;0.93;;;;;;;14.58;100.00;95758.06;4993090;28;24648;-78
2023/09/01 06:24:08;;;;;;;1.90;1.10;;;;;;;14.55;100.00;95761.72;4993934;28;24441;-79
2023/09/01 06:26:35;;;;;;;2.67;1.27;;;;;;;14.60;100.00;95759.56;4994605;28;24473;-78
2023/09/01 06:29:01;;;;;;;1.65;1.05;;;;;;;14.61;100.00;95758.66;4993384;28;24495;-76
2023/09/01 06:31:28;;;;;;;2.40;0.98;;;;;;;14.63;100.00;95761.13;4992311;28;24429;-75
2023/09/01 06:33:56;;;;;;;3.33;1.27;;;;;;;14.71;100.00;95764.75;4991963;28;24793;-77
2023/09/01 06:36:23;;;;;;;3.30;1.13;;;;;;;14.74;100.00;95776.75;4991756;28;24441;-78
2023/09/01 06:38:49;;;;;;;2.33;1.20;;;;;;;14.80;100.00;95775.44;4991620;28;25014;-77
2023/09/01 06:41:16;;;;;;;2.97;1.30;;;;;;;14.79;100.00;95779.81;4991856;28;24433;-77
2023/09/01 06:43:42;;;;;;;1.40;1.10;;;;;;;14.80;100.00;95771.06;4991218;28;24992;-75
2023/09/01 06:46:09;;;;;;;1.90;1.08;;;;;;;14.84;100.00;95785.50;4992101;28;24444;-73
2023/09/01 06:48:36;;;;;;;3.35;1.27;;;;;;;14.79;100.00;95784.19;4992193;28;24440;-75
2023/09/01 06:51:04;;;;;;;1.40;1.00;;;;;;;14.82;100.00;95782.16;4992979;28;25051;-76
2023/09/01 06:53:30;;;;;;;1.90;1.00;;;;;;;14.83;100.00;95777.78;4992456;28;24440;-77
2023/09/01 06:55:57;;;;;;;2.10;1.07;;;;;;;14.92;100.00;95785.72;4993035;28;24708;-75
2023/09/01 06:58:23;;;;;;;1.48;1.10;;;;;;;14.98;100.00;95782.63;4991411;28;24472;-75
2023/09/01 07:00:51;;;;;;;2.35;1.05;;;;;;;15.02;100.00;95783.22;4998153;28;25022;-76
2023/09/01 07:03:18;;;;;;;1.70;1.10;;;;;;;15.01;100.00;95776.31;4998981;28;24495;-75
2023/09/01 07:05:54;;;;;;;5.63;1.30;;;;;;;15.08;100.00;95776.66;4998157;28;25031;-79
2023/09/01 07:08:22;;;;;;;1.92;1.27;;;;;;;15.23;100.00;95786.66;4998581;28;24491;-76
2023/09/01 07:10:49;;;;;;;2.05;1.10;;;;;;;15.28;100.00;95777.63;5000603;28;24444;-77
2023/09/01 07:13:15;;;;;;;1.38;1.17;;;;;;;15.38;100.00;95768.94;5003409;28;24436;-78
2023/09/01 07:15:47;;;;;;;1.63;1.20;;;;;;;15.45;100.00;95777.09;5000937;28;24828;-79
2023/09/01 07:18:16;;;;;;;2.97;1.00;;;;;;;15.52;100.00;95774.81;5000480;28;24452;-82
2023/09/01 07:20:45;;;;;;;4.07;1.08;;;;;;;15.63;100.00;95777.38;5002590;28;24512;-80
2023/09/01 07:23:11;;;;;;;1.20;0.88;;;;;;;15.65;100.00;95776.31;4983257;28;24804;-77
2023/09/01 07:25:39;;;;;;;1.15;0.70;;;;;;;15.76;100.00;95767.59;5000666;28;24448;-78
2023/09/01 07:28:06;;;;;;;1.67;0.70;;;;;;;15.73;100.00;95773.91;4999400;28;25022;-80
2023/09/01 07:30:33;;;;;;;1.50;0.90;;;;;;;15.82;100.00;95779.31;4998338;28;25063;-77
2023/09/01 07:33:00;;;;;;;1.20;0.80;;;;;;;15.88;100.00;95773.56;4997540;28;24479;-77
2023/09/01 07:35:26;;;;;;;1.63;0.80;;;;;;;15.85;100.00;95776.44;5002234;28;24452;-75
2023/09/01 07:37:53;;;;;;;1.38;0.63;;;;;;;15.91;100.00;95774.16;5001244;28;24441;-77
2023/09/01 07:40:19;;;;;;;1.02;0.70;;;;;;;16.00;100.00;95774.31;4998598;28;24447;-75
2023/09/01 07:42:47;;;;;;;1.42;0.60;;;;;;;15.97;100.00;95781.44;5001012;28;24436;-76
2023/09/01 07:45:14;;;;;;;2.50;0.70;;;;;;;16.13;100.00;95791.47;5003444;28;24440;-77
2023/09/01 07:47:41;;;;;;;1.10;0.60;;;;;;;16.14;100.00;95787.06;5008284;28;24440;-75
2023/09/01 07:50:07;;;;;;;2.88;0.73;;;;;;;16.19;100.00;95792.72;4998505;28;24436;-78
2023/09/01 07:52:34;;;;;;;0.90;0.60;;;;;;;16.23;100.00;95791.50;4998702;28;24440;-79
2023/09/01 07:55:00;;;;;;;1.88;0.40;;;;;;;16.25;100.00;95794.00;4997667;28;24698;-77
2023/09/01 07:57:27;;;;;;;1.17;0.60;;;;;;;16.24;100.00;95795.78;4997253;28;24517;-79
2023/09/01 07:59:55;;;;;;;0.70;0.60;;;;;;;16.31;100.00;95798.66;4996028;28;24813;-78
2023/09/01 08:02:21;;;;;;;1.45;0.47;;;;;;;16.30;100.00;95800.47;4998791;28;24448;-78
2023/09/01 08:04:48;;;;;;;0.73;0.50;;;;;;;16.41;100.00;95796.94;4998443;28;24821;-77
2023/09/01 08:07:14;;;;;;;0.75;0.40;;;;;;;16.44;100.00;95805.34;4997214;28;24451;-77
2023/09/01 08:09:41;;;;;;;0.55;0.35;;;;;;;16.46;100.00;95802.59;4987716;28;24441;-76
2023/09/01 08:12:08;;;;;;;0.85;0.65;;;;;;;16.54;100.00;95810.63;4993953;28;24437;-77
2023/09/01 08:14:34;;;;;;;1.10;0.63;;;;;;;16.55;100.00;95809.66;4996027;28;24444;-76
2023/09/01 08:17:02;;;;;;;1.00;0.30;;;;;;;16.55;100.00;95812.28;4996131;28;24425;-76
2023/09/01 08:19:29;;;;;;;0.52;0.30;;;;;;;16.65;100.00;95812.31;4995518;28;24441;-75
2023/09/01 08:21:56;;;;;;;0.60;0.40;;;;;;;16.74;100.00;95818.56;4994323;28;24441;-74
2023/09/01 08:24:23;;;;;;;2.10;0.50;;;;;;;16.72;100.00;95817.81;4989203;28;24445;-72
2023/09/01 08:26:49;;;;;;;0.45;0.40;;;;;;;16.75;100.00;95823.66;4982209;28;24484;-75
2023/09/01 08:29:16;;;;;;;0.77;0.30;;;;;;;16.84;100.00;95824.66;4998080;28;24447;-77
2023/09/01 08:31:43;;;;;;;1.00;0.40;;;;;;;16.88;100.00;95824.25;5002315;28;24463;-78
2023/09/01 08:34:11;;;;;;;0.82;0.30;;;;;;;16.87;100.00;95827.84;4997049;28;25195;-74
2023/09/01 08:36:38;;;;;;;0.75;0.30;;;;;;;16.94;100.00;95828.09;5007314;28;24792;-73
2023/09/01 08:39:05;;;;;;;1.20;0.40;;;;;;;17.00;100.00;95824.97;5003815;28;24448;-72
2023/09/01 08:41:33;;;;;;;0.83;0.30;;;;;;;17.00;100.00;95827.56;5004806;28;24444;-73
2023/09/01 08:44:05;;;;;;;2.83;0.30;;;;;;;17.07;100.00;95827.88;4994596;28;24452;-73
2023/09/01 08:46:32;;;;;;;1.00;0.50;;;;;;;17.11;100.00;95824.03;5003501;28;24443;-71
2023/09/01 08:49:00;;;;;;;0.25;0.22;;;;;;;17.15;100.00;95823.59;4997252;28;24437;-72
2023/09/01 08:51:28;;;;;;;0.88;0.40;;;;;;;17.19;100.00;95826.78;4993052;28;24437;-70
2023/09/01 08:53:55;;;;;;;0.68;0.40;;;;;;;17.32;100.00;95826.53;4994640;28;24809;-73
2023/09/01 08:56:21;;;;;;;0.90;0.30;;;;;;;17.35;100.00;95821.00;5001555;28;24448;-74
2023/09/01 08:58:48;;;;;;;1.70;0.43;;;;;;;17.36;100.00;95827.91;4993217;28;24453;-76
2023/09/01 09:01:16;;;;;;;1.73;0.30;;;;;;;17.46;100.00;95825.28;4992544;28;24810;-70
2023/09/01 09:03:43;;;;;;;0.60;0.30;;;;;;;17.61;100.00;95823.91;4991987;28;24444;-70
2023/09/01 09:06:13;;;;;;;0.90;0.40;;;;;;;17.71;100.00;95826.53;4992314;28;24464;-69
2023/09/01 09:08:41;;;;;;;1.05;0.90;;;;;;;17.73;100.00;95820.22;4992265;28;24797;-69
2023/09/01 09:11:12;;;;;;;0.70;0.40;;;;;;;17.77;100.00;95820.78;4992435;28;24440;-68
2023/09/01 09:13:39;;;;;;;0.77;0.57;;;;;;;17.95;100.00;95823.50;4984022;28;24848;-69
2023/09/01 09:16:11;;;;;;;1.65;0.57;;;;;;;18.02;100.00;95824.59;4986379;28;24880;-70
2023/09/01 09:18:40;;;;;;;1.52;0.52;;;;;;;17.98;100.00;95823.22;4991300;28;24453;-69
2023/09/01 09:21:22;;;;;;;1.30;0.60;;;;;;;17.99;100.00;95828.34;4991119;28;24448;-69
2023/09/01 09:23:51;;;;;;;0.57;0.43;;;;;;;17.92;100.00;95834.28;5001970;28;24432;-69
2023/09/01 09:26:24;;;;;;;0.95;0.60;;;;;;;17.78;100.00;95827.66;5000168;28;25002;-70
2023/09/01 09:28:50;;;;;;;0.98;0.50;;;;;;;17.73;100.00;95828.06;4989119;28;24440;-69
2023/09/01 09:31:17;;;;;;;0.70;0.50;;;;;;;17.67;100.00;95829.44;4989193;28;24503;-70
2023/09/01 09:33:45;;;;;;;0.73;0.57;;;;;;;17.69;100.00;95829.31;5002411;28;24982;-69
2023/09/01 09:36:11;;;;;;;0.80;0.60;;;;;;;17.65;100.00;95828.75;5017787;23;24483;-72
2023/09/01 09:38:41;;;;;;;4.32;1.20;;;;;;;17.77;100.00;95837.31;5010648;28;24432;-72
2023/09/01 09:41:09;;;;;;;1.15;0.80;;;;;;;17.81;100.00;95830.03;5013963;28;24443;-75
2023/09/01 09:43:46;;;;;;;1.50;0.67;;;;;;;17.77;100.00;95833.88;5015745;28;24421;-74
2023/09/01 09:46:13;;;;;;;2.03;0.88;;;;;;;17.84;100.00;95835.81;5019702;28;24436;-75
2023/09/01 09:48:41;;;;;;;1.88;0.77;;;;;;;17.87;100.00;95838.16;5011528;28;24420;-72
2023/09/01 09:51:08;;;;;;;1.80;0.82;;;;;;;17.92;100.00;95834.28;5010969;28;24435;-72
2023/09/01 09:53:36;;;;;;;1.23;0.80;;;;;;;18.06;100.00;95839.91;5002398;28;24439;-72
2023/09/01 09:56:18;;;;;;;1.08;0.90;;;;;;;18.18;100.00;95845.81;5013374;28;24828;-72
2023/09/01 09:58:47;;;;;;;2.03;0.90;;;;;;;18.26;100.00;95843.31;4992239;28;24441;-72
2023/09/01 10:01:18;;;;;;;0.95;0.70;;;;;;;18.29;100.00;95843.03;4991462;28;24436;-72
2023/09/01 10:03:46;;;;;;;1.30;0.90;;;;;;;18.31;100.00;95848.13;4991236;28;24970;-71
2023/09/01 10:06:12;;;;;;;1.92;1.00;;;;;;;18.32;100.00;95841.94;4996504;28;24456;-71
2023/09/01 10:08:39;;;;;;;2.20;1.20;;;;;;;18.25;100.00;95836.44;5006813;28;24440;-71
2023/09/01 10:11:09;;;;;;;1.95;1.05;;;;;;;18.25;100.00;95833.00;5011094;28;24420;-71
2023/09/01 10:13:37;;;;;;;2.53;1.20;;;;;;;18.23;100.00;95832.28;4997866;28;24448;-72
2023/09/01 10:16:05;;;;;;;2.08;1.10;;;;;;;18.29;100.00;95829.94;5006937;28;25022;-73
2023/09/01 10:18:34;;;;;;;2.05;1.20;;;;;;;18.37;100.00;95835.28;5004511;28;24433;-73
2023/09/01 10:21:01;;;;;;;5.07;1.30;;;;;;;18.36;100.00;95827.56;5010712;28;24435;-72
2023/09/01 10:23:27;;;;;;;1.40;0.90;;;;;;;18.53;100.00;95828.59;4998306;28;24496;-73
2023/09/01 10:26:25;;;;;;;1.92;1.02;;;;;;;18.51;100.00;95830.56;4990958;28;25069;-74
2023/09/01 10:28:58;;;;;;;2.30;1.13;;;;;;;18.60;100.00;95834.94;4957921;28;24496;-73
2023/09/01 10:31:24;;;;;;;5.07;1.63;;;;;;;18.71;100.00;95829.53;4991157;28;24437;-74
2023/09/01 10:34:04;;;;;;;2.03;1.00;;;;;;;18.83;100.00;95830.16;5005342;28;24783;-74
2023/09/01 10:36:31;;;;;;;1.43;0.87;;;;;;;18.91;100.00;95832.06;5009832;28;24444;-74
2023/09/01 10:39:21;;;;;;;1.60;1.20;;;;;;;18.98;100.00;95831.31;5002072;28;24441;-73
2023/09/01 10:41:50;;;;;;;2.92;0.82;;;;;;;19.07;100.00;95837.50;4991164;28;24547;-73
2023/09/01 10:44:18;;;;;;;4.10;1.20;;;;;;;18.94;100.00;95829.97;5000982;28;24523;-74
2023/09/01 10:46:45;;;;;;;2.85;1.00;;;;;;;18.92;100.00;95834.56;5004070;28;24448;-72
2023/09/01 10:49:12;;;;;;;2.17;1.10;;;;;;;18.93;100.00;95830.13;5004221;28;24994;-73
2023/09/01 10:51:39;;;;;;;2.15;0.90;;;;;;;18.96;100.00;95828.03;4999895;28;24448;-73
2023/09/01 10:54:36;;;;;;;1.63;1.00;;;;;;;19.00;100.00;95825.94;5008223;28;25007;-73
2023/09/01 10:57:02;;;;;;;1.40;1.02;;;;;;;19.24;100.00;95817.50;4992701;28;24455;-74
2023/09/01 10:59:31;;;;;;;1.35;0.82;;;;;;;19.30;100.00;95824.78;5008685;28;24502;-72
2023/09/01 11:02:17;;;;;;;3.05;1.35;;;;;;;19.39;100.00;95825.69;4992808;28;24441;-73
2023/09/01 11:04:45;;;;;;;2.20;1.05;;;;;;;19.46;100.00;95832.81;5002475;28;24997;-73
2023/09/01 11:07:12;;;;;;;3.45;1.10;;;;;;;19.52;100.00;95840.13;5001485;28;24440;-73
2023/09/01 11:09:48;;;;;;;2.22;1.10;;;;;;;19.64;100.00;95837.28;5009989;28;24436;-73
2023/09/01 11:12:15;;;;;;;2.08;1.00;;;;;;;19.73;100.00;95837.22;4990904;28;24437;-73
2023/09/01 11:14:55;;;;;;;6.65;1.08;;;;;;;19.88;100.00;95828.81;4997683;28;24437;-73
2023/09/01 11:17:43;;;;;;;1.73;1.05;;;;;;;20.06;100.00;95824.34;5009903;28;24835;-73
2023/09/01 11:20:11;;;;;;;2.60;1.17;;;;;;;20.16;100.00;95838.19;5010526;28;24453;-73
2023/09/01 11:22:39;;;;;;;2.72;1.20;;;;;;;20.32;100.00;95834.88;5004179;28;24496;-72
2023/09/01 11:25:09;;;;;;;1.92;1.00;;;;;;;20.46;100.00;95828.19;5000370;28;24444;-72
2023/09/01 11:27:36;;;;;;;1.83;1.10;;;;;;;20.54;100.00;95829.13;5009540;28;24994;-73